Terminal Aerodrome Forecast
Issued by NWS

Home | Current Version | Previous Version | Text Only | Print | Product List | Glossary On
Versions: 1 2 3 4 5 6 7 8 9 10 11 12 13 14 15 16 17 18 19 20 21 22 23 24 25 26 27 28 29 30 31 32
000
FTUS43 KDTX 250522
TAFPTK
TAF
KPTK 250522Z 2506/2606 18005KT 6SM -SHRA SCT035 BKN080 OVC200
      TEMPO 2506/2508 2SM TSRA OVC025CB
     FM250800 24007KT 5SM BR BKN020 OVC035
     FM251100 27005KT 3SM BR SCT020 BKN150
     FM251400 30010KT P6SM SCT040 BKN250
     FM251900 30013KT P6SM SCT050
     FM260100 26005KT P6SM SKC=

USA.gov is the U.S. government's official web portal to all federal, state and local government web resources and services.